Time;durP1;ratioP1;P1;durP2;ratioP2;P2;SDS_P1;SDS_P2;PMS_P1;PMS_P2;Temp;Humidity;BMP_temperature;BMP_pressure;BME280_temperature;BME280_humidity;BME280_pressure;Samples;Min_cycle;Max_cycle;Signal;HPM_P1;HPM_P2
2023/12/17 00:01:27;;;;;;;6.50;4.20;;;;;;;;;;81903;283;3028228;-40
2023/12/17 00:04:04;;;;;;;6.60;4.30;;;;;;;;;;81893;283;3027891;-42
2023/12/17 00:06:42;;;;;;;6.80;4.10;;;;;;;;;;81889;282;3031522;-43
2023/12/17 00:09:23;;;;;;;6.40;4.20;;;;;;;;;;81878;283;3031752;-41
2023/12/17 00:12:02;;;;;;;6.10;4.20;;;;;;;;;;81918;286;3027961;-40
2023/12/17 00:14:45;;;;;;;6.30;4.50;;;;;;;;;;81911;286;3028079;-42
2023/12/17 00:17:22;;;;;;;6.10;3.90;;;;;;;;;;81896;286;3031002;-41
2023/12/17 00:20:03;;;;;;;6.50;4.00;;;;;;;;;;81898;283;3032451;-42
2023/12/17 00:22:41;;;;;;;6.50;4.20;;;;;;;;;;81882;283;3029497;-41
2023/12/17 00:25:20;;;;;;;6.50;4.10;;;;;;;;;;81857;283;3028202;-42
2023/12/17 00:28:00;;;;;;;6.30;4.00;;;;;;;;;;81838;283;3030879;-43
2023/12/17 00:30:41;;;;;;;6.30;4.10;;;;;;;;;;81895;279;3031274;-41
2023/12/17 00:33:20;;;;;;;6.60;4.30;;;;;;;;;;81908;283;3028921;-41
2023/12/17 00:35:58;;;;;;;6.20;4.10;;;;;;;;;;81891;283;3027817;-41
2023/12/17 00:38:35;;;;;;;7.20;4.10;;;;;;;;;;81931;285;3030644;-42
2023/12/17 00:41:12;;;;;;;6.00;3.80;;;;;;;;;;81957;286;3031838;-42
2023/12/17 00:43:48;;;;;;;6.50;4.30;;;;;;;;;;81950;282;3028988;-42
2023/12/17 00:46:30;;;;;;;6.80;4.00;;;;;;;;;;81979;282;3028148;-42
2023/12/17 00:49:09;;;;;;;5.80;3.50;;;;;;;;;;81906;285;3030880;-40
2023/12/17 00:51:48;;;;;;;6.00;4.00;;;;;;;;;;81932;282;3031365;-41
2023/12/17 00:54:28;;;;;;;5.70;4.00;;;;;;;;;;81911;286;3028687;-40
2023/12/17 00:57:05;;;;;;;6.10;3.70;;;;;;;;;;81941;282;3027944;-41
2023/12/17 00:59:43;;;;;;;7.40;3.90;;;;;;;;;;81950;282;3030685;-41
2023/12/17 01:02:19;;;;;;;6.00;3.80;;;;;;;;;;81908;282;3031738;-42
2023/12/17 01:04:57;;;;;;;6.30;4.10;;;;;;;;;;81932;282;3028248;-41
2023/12/17 01:07:34;;;;;;;6.00;4.10;;;;;;;;;;81893;278;3027371;-40
2023/12/17 01:10:19;;;;;;;5.90;3.90;;;;;;;;;;81907;282;3032231;-41
2023/12/17 01:12:56;;;;;;;6.30;3.60;;;;;;;;;;81931;286;3031108;-42
2023/12/17 01:15:32;;;;;;;6.10;3.90;;;;;;;;;;81946;286;3028929;-40
2023/12/17 01:18:09;;;;;;;5.40;3.50;;;;;;;;;;81940;282;3027683;-41
2023/12/17 01:20:48;;;;;;;5.80;3.80;;;;;;;;;;81953;282;3031127;-41
2023/12/17 01:23:27;;;;;;;6.30;3.80;;;;;;;;;;81947;282;3032145;-42
2023/12/17 01:26:04;;;;;;;6.60;3.90;;;;;;;;;;81923;282;3030436;-42
2023/12/17 01:28:41;;;;;;;6.30;4.00;;;;;;;;;;81895;282;3027380;-41
2023/12/17 01:31:18;;;;;;;5.60;3.60;;;;;;;;;;81960;282;3030634;-40
2023/12/17 01:33:57;;;;;;;6.30;4.10;;;;;;;;;;81956;282;3031927;-41
2023/12/17 01:36:37;;;;;;;5.80;4.00;;;;;;;;;;81960;282;3028161;-40
2023/12/17 01:39:13;;;;;;;6.20;4.00;;;;;;;;;;81907;282;3027899;-41
2023/12/17 01:41:50;;;;;;;6.60;4.30;;;;;;;;;;81941;282;3031132;-40
2023/12/17 01:44:27;;;;;;;5.80;3.90;;;;;;;;;;81918;282;3032023;-42
2023/12/17 01:47:03;;;;;;;6.10;3.80;;;;;;;;;;81932;282;3029049;-41
2023/12/17 01:49:40;;;;;;;5.60;3.60;;;;;;;;;;81903;282;3027764;-41
2023/12/17 01:52:17;;;;;;;5.70;3.80;;;;;;;;;;81979;282;3031867;-42
2023/12/17 01:54:54;;;;;;;6.80;4.30;;;;;;;;;;81977;282;3031785;-40
2023/12/17 01:57:34;;;;;;;6.40;4.10;;;;;;;;;;81957;282;3028628;-42
2023/12/17 02:00:17;;;;;;;6.50;3.80;;;;;;;;;;81912;282;3027393;-40
2023/12/17 02:02:55;;;;;;;5.90;3.90;;;;;;;;;;81942;282;3031325;-41
2023/12/17 02:05:33;;;;;;;6.20;4.00;;;;;;;;;;81919;282;3032398;-40
2023/12/17 02:08:10;;;;;;;6.40;3.90;;;;;;;;;;81947;282;3028553;-41
2023/12/17 02:10:49;;;;;;;6.10;3.70;;;;;;;;;;81915;282;3027515;-41
2023/12/17 02:13:28;;;;;;;7.10;3.90;;;;;;;;;;81942;286;3030636;-40
2023/12/17 02:16:05;;;;;;;5.90;4.00;;;;;;;;;;81930;282;3032839;-40
2023/12/17 02:18:41;;;;;;;6.80;4.40;;;;;;;;;;81959;285;3029475;-41
2023/12/17 02:21:18;;;;;;;6.10;3.80;;;;;;;;;;81938;281;3027625;-41
2023/12/17 02:23:54;;;;;;;6.20;4.00;;;;;;;;;;81977;286;3030834;-42
2023/12/17 02:26:32;;;;;;;6.00;4.00;;;;;;;;;;81950;282;3031482;-40
2023/12/17 02:29:10;;;;;;;6.40;4.00;;;;;;;;;;81934;278;3028301;-40
2023/12/17 02:31:48;;;;;;;6.60;4.20;;;;;;;;;;81958;282;3035562;-42
2023/12/17 02:34:24;;;;;;;6.40;4.10;;;;;;;;;;81946;285;3031033;-41
2023/12/17 02:37:04;;;;;;;6.60;3.80;;;;;;;;;;81945;285;3031940;-40
2023/12/17 02:39:40;;;;;;;6.00;3.80;;;;;;;;;;81948;285;3028610;-41
2023/12/17 02:42:18;;;;;;;6.20;3.80;;;;;;;;;;81908;286;3029850;-41
2023/12/17 02:44:54;;;;;;;6.10;3.90;;;;;;;;;;81942;282;3030289;-40
2023/12/17 02:47:33;;;;;;;6.60;4.10;;;;;;;;;;81964;282;3031905;-42
2023/12/17 02:50:11;;;;;;;5.90;3.70;;;;;;;;;;81956;278;3027836;-41
2023/12/17 02:52:50;;;;;;;6.00;3.90;;;;;;;;;;81972;282;3027927;-40
2023/12/17 02:55:30;;;;;;;5.50;3.70;;;;;;;;;;81956;282;3031480;-42
2023/12/17 02:58:09;;;;;;;5.90;3.80;;;;;;;;;;81943;282;3033985;-41
2023/12/17 03:00:46;;;;;;;5.70;3.80;;;;;;;;;;81969;285;3028105;-41
2023/12/17 03:03:24;;;;;;;5.80;3.80;;;;;;;;;;81991;282;3027522;-42
2023/12/17 03:06:01;;;;;;;5.60;3.80;;;;;;;;;;81987;285;3030681;-41
2023/12/17 03:08:38;;;;;;;6.50;3.80;;;;;;;;;;81967;282;3032006;-42
2023/12/17 03:11:15;;;;;;;5.80;3.60;;;;;;;;;;81926;282;3027955;-40
2023/12/17 03:13:54;;;;;;;5.70;3.70;;;;;;;;;;81954;285;3027370;-41
2023/12/17 03:16:33;;;;;;;6.50;3.70;;;;;;;;;;81936;282;3030845;-41
2023/12/17 03:19:09;;;;;;;5.30;3.60;;;;;;;;;;81953;282;3031399;-41
2023/12/17 03:21:48;;;;;;;5.50;3.80;;;;;;;;;;81956;285;3028552;-40
2023/12/17 03:24:24;;;;;;;6.70;4.00;;;;;;;;;;81997;282;3029154;-42
2023/12/17 03:27:03;;;;;;;6.00;3.90;;;;;;;;;;81994;282;3031895;-42
2023/12/17 03:29:46;;;;;;;6.20;3.70;;;;;;;;;;81988;282;3033286;-40
2023/12/17 03:32:24;;;;;;;5.80;3.70;;;;;;;;;;81977;285;3030947;-42
2023/12/17 03:35:01;;;;;;;5.90;4.10;;;;;;;;;;82000;282;3027853;-42
2023/12/17 03:37:40;;;;;;;5.80;3.80;;;;;;;;;;81923;286;3030993;-40
2023/12/17 03:40:18;;;;;;;5.20;3.60;;;;;;;;;;81897;283;3031789;-41
2023/12/17 03:42:55;;;;;;;5.20;3.50;;;;;;;;;;81855;286;3028379;-40
2023/12/17 03:45:35;;;;;;;5.60;3.70;;;;;;;;;;81901;286;3027906;-40
2023/12/17 03:48:14;;;;;;;5.60;3.60;;;;;;;;;;81885;283;3030374;-42
2023/12/17 03:50:52;;;;;;;6.00;3.70;;;;;;;;;;81893;283;3031562;-41
2023/12/17 03:53:30;;;;;;;5.30;3.40;;;;;;;;;;81898;283;3035776;-41
2023/12/17 03:56:10;;;;;;;5.90;3.60;;;;;;;;;;81893;283;3027616;-41
2023/12/17 03:58:50;;;;;;;6.60;3.70;;;;;;;;;;81909;286;3031188;-40
2023/12/17 04:01:30;;;;;;;5.90;3.70;;;;;;;;;;81887;286;3031942;-41
2023/12/17 04:04:06;;;;;;;5.70;3.60;;;;;;;;;;81902;286;3028733;-41
2023/12/17 04:06:46;;;;;;;5.90;3.60;;;;;;;;;;81936;283;3027476;-40
2023/12/17 04:09:25;;;;;;;5.80;3.60;;;;;;;;;;81916;286;3032227;-40
2023/12/17 04:12:04;;;;;;;5.80;3.70;;;;;;;;;;81918;282;3031590;-41
2023/12/17 04:15:02;;;;;;;6.50;3.60;;;;;;;;;;81913;286;3028600;-42
2023/12/17 04:17:43;;;;;;;5.70;3.50;;;;;;;;;;81893;286;3028137;-41
2023/12/17 04:20:22;;;;;;;5.60;3.80;;;;;;;;;;81903;283;3031415;-41
2023/12/17 04:23:01;;;;;;;6.00;3.70;;;;;;;;;;81866;283;3032313;-42
2023/12/17 04:25:42;;;;;;;5.60;3.40;;;;;;;;;;81925;283;3029119;-41
2023/12/17 04:28:18;;;;;;;5.70;3.70;;;;;;;;;;81907;286;3027372;-41
2023/12/17 04:30:56;;;;;;;5.90;3.60;;;;;;;;;;81922;286;3031386;-41
2023/12/17 04:33:40;;;;;;;6.10;3.70;;;;;;;;;;81875;283;3032094;-40
2023/12/17 04:36:18;;;;;;;6.90;4.00;;;;;;;;;;81945;283;3028071;-41
2023/12/17 04:38:57;;;;;;;5.70;3.40;;;;;;;;;;81991;282;3027116;-40
2023/12/17 04:41:35;;;;;;;5.40;3.50;;;;;;;;;;81967;286;3030622;-40
2023/12/17 04:44:15;;;;;;;5.70;3.80;;;;;;;;;;82023;285;3031579;-40
2023/12/17 04:46:56;;;;;;;5.90;3.60;;;;;;;;;;81843;282;3028078;-40
2023/12/17 04:49:32;;;;;;;5.60;3.80;;;;;;;;;;81998;285;3027058;-40
2023/12/17 04:52:10;;;;;;;5.50;3.40;;;;;;;;;;81946;286;3031280;-41
2023/12/17 04:54:49;;;;;;;5.80;3.50;;;;;;;;;;81969;286;3038806;-40
2023/12/17 04:57:25;;;;;;;5.90;3.80;;;;;;;;;;81969;286;3028464;-40
2023/12/17 05:00:05;;;;;;;5.70;3.30;;;;;;;;;;82008;286;3027721;-41
2023/12/17 05:02:43;;;;;;;5.20;3.30;;;;;;;;;;81935;282;3030507;-41
2023/12/17 05:05:24;;;;;;;5.60;3.50;;;;;;;;;;81960;282;3031529;-42
2023/12/17 05:08:06;;;;;;;5.60;3.30;;;;;;;;;;81914;282;3029141;-40
2023/12/17 05:10:45;;;;;;;6.20;3.20;;;;;;;;;;81970;282;3027156;-42
2023/12/17 05:13:24;;;;;;;5.20;3.20;;;;;;;;;;81926;282;3031217;-40
2023/12/17 05:16:00;;;;;;;5.40;3.10;;;;;;;;;;81992;282;3032402;-40
2023/12/17 05:18:36;;;;;;;5.30;3.20;;;;;;;;;;81955;282;3028377;-41
2023/12/17 05:21:15;;;;;;;5.60;3.10;;;;;;;;;;81940;282;3027583;-41
2023/12/17 05:23:53;;;;;;;5.30;3.10;;;;;;;;;;81908;278;3032157;-42
2023/12/17 05:26:31;;;;;;;6.20;3.30;;;;;;;;;;81968;282;3031961;-40
2023/12/17 05:29:08;;;;;;;5.20;2.90;;;;;;;;;;81965;282;3028245;-42
2023/12/17 05:31:50;;;;;;;5.20;2.90;;;;;;;;;;81972;282;3027574;-40
2023/12/17 05:34:32;;;;;;;5.40;2.80;;;;;;;;;;81934;282;3030962;-41
2023/12/17 05:37:11;;;;;;;4.90;2.90;;;;;;;;;;81914;282;3031488;-41
2023/12/17 05:39:48;;;;;;;4.90;2.80;;;;;;;;;;81952;286;3028639;-41
2023/12/17 05:42:28;;;;;;;5.00;2.90;;;;;;;;;;81915;282;3027197;-40
2023/12/17 05:45:09;;;;;;;4.80;2.80;;;;;;;;;;81911;285;3032670;-40
2023/12/17 05:47:46;;;;;;;4.80;2.60;;;;;;;;;;81927;285;3032084;-41
2023/12/17 05:50:24;;;;;;;5.10;2.80;;;;;;;;;;81935;285;3028813;-41
2023/12/17 05:53:03;;;;;;;4.80;2.60;;;;;;;;;;81959;282;3028006;-40
2023/12/17 05:55:42;;;;;;;5.10;2.90;;;;;;;;;;81956;281;3031210;-42
2023/12/17 05:58:22;;;;;;;5.10;2.70;;;;;;;;;;81969;282;3031178;-40
2023/12/17 06:00:59;;;;;;;4.50;2.60;;;;;;;;;;81970;282;3028757;-40
2023/12/17 06:03:35;;;;;;;5.10;2.80;;;;;;;;;;81977;286;3027370;-41
2023/12/17 06:06:15;;;;;;;5.40;2.80;;;;;;;;;;81937;285;3036165;-41
2023/12/17 06:08:55;;;;;;;5.00;2.80;;;;;;;;;;81950;282;3031077;-41
2023/12/17 06:11:36;;;;;;;5.10;2.80;;;;;;;;;;81940;282;3028094;-40
2023/12/17 06:14:14;;;;;;;4.80;2.70;;;;;;;;;;81896;282;3027419;-41
2023/12/17 06:16:58;;;;;;;5.00;2.60;;;;;;;;;;81912;286;3030312;-41
2023/12/17 06:19:40;;;;;;;4.70;2.80;;;;;;;;;;81947;282;3031485;-41
2023/12/17 06:22:16;;;;;;;4.60;2.80;;;;;;;;;;81922;282;3028514;-40
2023/12/17 06:24:53;;;;;;;4.90;2.70;;;;;;;;;;81909;282;3027470;-40
2023/12/17 06:27:31;;;;;;;5.10;2.80;;;;;;;;;;81983;285;3030347;-41
2023/12/17 06:30:10;;;;;;;4.50;2.40;;;;;;;;;;81926;282;3032025;-41
2023/12/17 06:32:46;;;;;;;5.10;2.70;;;;;;;;;;81920;285;3027994;-41
2023/12/17 06:35:25;;;;;;;5.00;2.80;;;;;;;;;;81898;285;3027693;-41
2023/12/17 06:38:01;;;;;;;5.50;2.90;;;;;;;;;;81940;282;3031884;-41
2023/12/17 06:40:40;;;;;;;4.90;2.80;;;;;;;;;;81939;282;3032857;-41
2023/12/17 06:43:16;;;;;;;5.30;2.80;;;;;;;;;;81950;285;3027990;-41
2023/12/17 06:45:53;;;;;;;4.60;2.50;;;;;;;;;;81926;282;3027794;-41
2023/12/17 06:48:36;;;;;;;5.20;2.60;;;;;;;;;;81919;285;3031677;-42
2023/12/17 06:51:13;;;;;;;4.60;2.40;;;;;;;;;;81896;282;3032078;-41
2023/12/17 06:53:53;;;;;;;4.90;2.50;;;;;;;;;;81915;282;3028968;-42
2023/12/17 06:56:33;;;;;;;4.50;2.60;;;;;;;;;;81888;282;3027570;-40
2023/12/17 06:59:11;;;;;;;4.70;2.50;;;;;;;;;;81955;282;3031051;-40
2023/12/17 07:01:52;;;;;;;4.50;2.50;;;;;;;;;;81933;282;3032919;-41
2023/12/17 07:04:31;;;;;;;4.50;2.60;;;;;;;;;;81891;282;3027939;-40
2023/12/17 07:07:07;;;;;;;4.60;2.50;;;;;;;;;;81873;282;3028420;-40
2023/12/17 07:09:44;;;;;;;4.40;2.50;;;;;;;;;;81975;282;3031291;-41
2023/12/17 07:12:20;;;;;;;4.60;2.50;;;;;;;;;;81963;285;3032114;-40
2023/12/17 07:14:57;;;;;;;4.80;2.70;;;;;;;;;;81957;282;3029066;-41
2023/12/17 07:17:36;;;;;;;4.70;2.50;;;;;;;;;;81923;282;3027816;-42
2023/12/17 07:20:14;;;;;;;4.80;2.40;;;;;;;;;;81958;282;3031350;-40
2023/12/17 07:22:54;;;;;;;4.60;2.40;;;;;;;;;;81950;282;3031928;-41
2023/12/17 07:25:30;;;;;;;4.40;2.40;;;;;;;;;;81947;282;3029179;-40
2023/12/17 07:28:10;;;;;;;4.00;2.20;;;;;;;;;;81944;285;3033503;-42
2023/12/17 07:30:46;;;;;;;4.30;2.40;;;;;;;;;;81964;282;3031141;-41
2023/12/17 07:33:23;;;;;;;4.30;2.30;;;;;;;;;;81952;282;3031189;-42
2023/12/17 07:35:59;;;;;;;4.40;2.20;;;;;;;;;;81922;282;3027961;-42
2023/12/17 07:38:36;;;;;;;4.70;2.30;;;;;;;;;;81975;285;3027980;-42
2023/12/17 07:41:15;;;;;;;4.30;2.40;;;;;;;;;;81965;282;3031004;-42
2023/12/17 07:43:51;;;;;;;4.90;2.30;;;;;;;;;;81979;285;3032614;-42
2023/12/17 07:46:27;;;;;;;4.20;2.30;;;;;;;;;;81961;282;3028339;-42
2023/12/17 07:49:04;;;;;;;4.00;2.40;;;;;;;;;;81988;285;3027244;-42
2023/12/17 07:51:40;;;;;;;4.30;2.30;;;;;;;;;;81995;285;3031050;-41
2023/12/17 07:54:17;;;;;;;4.70;2.50;;;;;;;;;;81965;282;3031356;-40
2023/12/17 07:56:53;;;;;;;4.40;2.50;;;;;;;;;;81936;285;3028251;-42
2023/12/17 07:59:31;;;;;;;4.30;2.30;;;;;;;;;;81983;285;3027854;-41
2023/12/17 08:02:08;;;;;;;5.00;2.40;;;;;;;;;;81943;282;3031085;-41
2023/12/17 08:04:47;;;;;;;4.40;2.50;;;;;;;;;;81939;282;3031735;-41
2023/12/17 08:07:24;;;;;;;4.70;2.50;;;;;;;;;;81912;282;3028806;-40
2023/12/17 08:10:02;;;;;;;4.50;2.40;;;;;;;;;;81927;282;3027364;-41
2023/12/17 08:12:38;;;;;;;3.80;2.20;;;;;;;;;;81908;282;3031073;-40
2023/12/17 08:15:17;;;;;;;4.20;2.40;;;;;;;;;;81902;282;3031883;-40
2023/12/17 08:17:58;;;;;;;4.70;2.60;;;;;;;;;;81906;282;3028522;-40
2023/12/17 08:20:38;;;;;;;4.70;2.40;;;;;;;;;;81925;285;3027877;-41
2023/12/17 08:23:18;;;;;;;4.00;2.40;;;;;;;;;;81905;285;3030647;-42
2023/12/17 08:25:58;;;;;;;4.20;2.30;;;;;;;;;;81940;282;3031031;-41
2023/12/17 08:28:35;;;;;;;4.30;2.30;;;;;;;;;;81917;282;3028091;-41
2023/12/17 08:31:20;;;;;;;4.90;2.50;;;;;;;;;;81952;282;3027391;-41
2023/12/17 08:34:00;;;;;;;4.10;2.30;;;;;;;;;;81936;285;3030903;-41
2023/12/17 08:36:36;;;;;;;4.90;2.40;;;;;;;;;;81974;285;3031360;-42
2023/12/17 08:39:17;;;;;;;4.10;2.40;;;;;;;;;;81953;282;3028371;-41
2023/12/17 08:41:53;;;;;;;4.80;2.40;;;;;;;;;;81902;282;3027695;-41
2023/12/17 08:44:30;;;;;;;4.30;2.50;;;;;;;;;;81903;282;3031015;-41
2023/12/17 08:47:06;;;;;;;4.60;2.40;;;;;;;;;;81897;278;3032315;-41
2023/12/17 08:49:45;;;;;;;4.30;2.40;;;;;;;;;;81946;282;3033947;-42
2023/12/17 08:52:23;;;;;;;4.30;2.40;;;;;;;;;;81959;282;3027344;-40
2023/12/17 08:55:02;;;;;;;4.50;2.50;;;;;;;;;;81906;285;3031411;-41
2023/12/17 08:57:38;;;;;;;4.40;2.60;;;;;;;;;;81879;282;3031865;-41
2023/12/17 09:00:20;;;;;;;4.20;2.40;;;;;;;;;;81895;286;3034753;-41
2023/12/17 09:03:02;;;;;;;4.40;2.40;;;;;;;;;;81900;282;3027500;-41
2023/12/17 09:05:43;;;;;;;4.60;2.50;;;;;;;;;;81917;282;3031375;-41
2023/12/17 09:08:21;;;;;;;4.30;2.70;;;;;;;;;;81854;282;3031675;-41
2023/12/17 09:10:58;;;;;;;4.40;2.60;;;;;;;;;;81901;282;3029118;-42
2023/12/17 09:13:40;;;;;;;4.50;2.60;;;;;;;;;;81934;282;3028069;-42
2023/12/17 09:16:17;;;;;;;4.20;2.40;;;;;;;;;;81902;282;3030821;-41
2023/12/17 09:18:55;;;;;;;4.50;2.40;;;;;;;;;;81892;285;3031973;-42
2023/12/17 09:21:33;;;;;;;4.80;2.60;;;;;;;;;;81929;282;3027822;-42
2023/12/17 09:24:13;;;;;;;4.30;2.40;;;;;;;;;;81998;282;3027558;-41
2023/12/17 09:26:50;;;;;;;4.00;2.40;;;;;;;;;;81965;282;3030814;-41
2023/12/17 09:29:26;;;;;;;4.20;2.20;;;;;;;;;;81895;282;3031710;-43
2023/12/17 09:32:04;;;;;;;4.50;2.60;;;;;;;;;;81932;282;3028819;-42
2023/12/17 09:34:42;;;;;;;4.30;2.70;;;;;;;;;;81929;286;3027405;-42
2023/12/17 09:37:20;;;;;;;4.80;2.50;;;;;;;;;;81948;286;3032068;-41
2023/12/17 09:39:58;;;;;;;4.30;2.50;;;;;;;;;;81915;282;3031295;-40
2023/12/17 09:42:37;;;;;;;4.40;2.40;;;;;;;;;;81908;285;3028605;-41
2023/12/17 09:45:17;;;;;;;4.40;2.40;;;;;;;;;;81947;282;3028073;-43
2023/12/17 09:47:55;;;;;;;3.90;2.40;;;;;;;;;;81933;282;3030591;-41
2023/12/17 09:50:32;;;;;;;3.90;2.30;;;;;;;;;;81908;285;3032643;-40
2023/12/17 09:53:12;;;;;;;4.20;2.30;;;;;;;;;;81943;285;3029102;-42
2023/12/17 09:55:54;;;;;;;4.00;2.10;;;;;;;;;;81937;282;3028038;-41
2023/12/17 09:58:32;;;;;;;5.10;2.50;;;;;;;;;;81939;282;3031149;-41
2023/12/17 10:01:09;;;;;;;4.30;2.10;;;;;;;;;;81950;285;3031857;-41
2023/12/17 10:03:45;;;;;;;4.60;2.20;;;;;;;;;;81940;282;3027986;-41
2023/12/17 10:06:23;;;;;;;4.50;2.40;;;;;;;;;;81949;282;3028004;-41
2023/12/17 10:09:05;;;;;;;4.20;2.30;;;;;;;;;;81950;282;3031752;-42
2023/12/17 10:11:43;;;;;;;4.20;2.20;;;;;;;;;;82018;282;3038571;-40
2023/12/17 10:14:30;;;;;;;4.50;2.30;;;;;;;;;;81954;286;3027990;-41
2023/12/17 10:17:07;;;;;;;4.10;2.60;;;;;;;;;;81948;282;3027556;-41
2023/12/17 10:19:44;;;;;;;4.50;2.70;;;;;;;;;;81898;285;3030873;-41
2023/12/17 10:22:21;;;;;;;4.70;3.00;;;;;;;;;;81936;282;3031535;-42
2023/12/17 10:24:58;;;;;;;5.30;3.60;;;;;;;;;;81922;282;3028473;-41
2023/12/17 10:27:38;;;;;;;5.10;3.50;;;;;;;;;;81951;285;3027462;-41
2023/12/17 10:30:16;;;;;;;5.60;3.30;;;;;;;;;;81939;282;3031854;-42
2023/12/17 10:32:57;;;;;;;5.70;3.60;;;;;;;;;;81968;278;3031995;-41
2023/12/17 10:35:35;;;;;;;6.20;3.60;;;;;;;;;;81904;281;3028547;-41
2023/12/17 10:38:17;;;;;;;4.70;3.30;;;;;;;;;;81932;286;3028012;-42
2023/12/17 10:40:54;;;;;;;5.30;3.20;;;;;;;;;;81905;285;3030969;-42
2023/12/17 10:43:32;;;;;;;5.60;3.40;;;;;;;;;;81895;286;3031223;-42
2023/12/17 10:46:11;;;;;;;5.60;3.40;;;;;;;;;;81932;278;3028212;-41
2023/12/17 10:48:50;;;;;;;5.20;3.30;;;;;;;;;;81916;282;3027766;-42
2023/12/17 10:51:27;;;;;;;6.00;3.70;;;;;;;;;;81925;285;3030999;-42
2023/12/17 10:54:04;;;;;;;5.60;3.20;;;;;;;;;;81969;282;3031994;-41
2023/12/17 10:56:48;;;;;;;5.50;3.30;;;;;;;;;;81938;282;3027898;-41
2023/12/17 10:59:30;;;;;;;5.20;3.20;;;;;;;;;;81958;285;3027887;-42
2023/12/17 11:02:23;;;;;;;5.80;3.40;;;;;;;;;;81941;282;3032176;-41
2023/12/17 11:05:03;;;;;;;5.20;3.20;;;;;;;;;;81947;282;3031299;-41
2023/12/17 11:07:40;;;;;;;5.00;3.10;;;;;;;;;;81973;282;3028022;-41
2023/12/17 11:10:17;;;;;;;5.70;3.30;;;;;;;;;;81957;282;3027871;-42
2023/12/17 11:12:54;;;;;;;5.00;3.10;;;;;;;;;;81927;285;3031162;-41
2023/12/17 11:15:31;;;;;;;5.10;3.40;;;;;;;;;;81957;282;3032138;-41
2023/12/17 11:18:08;;;;;;;5.20;3.30;;;;;;;;;;81950;282;3028861;-41
2023/12/17 11:20:49;;;;;;;4.90;3.30;;;;;;;;;;81961;285;3027258;-41
2023/12/17 11:23:28;;;;;;;6.60;3.60;;;;;;;;;;81964;282;3036816;-41
2023/12/17 11:26:08;;;;;;;5.80;3.40;;;;;;;;;;81929;285;3031670;-42
2023/12/17 11:28:45;;;;;;;5.00;3.40;;;;;;;;;;81939;282;3028671;-41
2023/12/17 11:31:25;;;;;;;5.20;3.70;;;;;;;;;;81926;281;3027403;-41
2023/12/17 11:34:02;;;;;;;5.70;3.70;;;;;;;;;;81962;282;3030768;-41
2023/12/17 11:36:44;;;;;;;5.30;3.50;;;;;;;;;;81968;285;3032516;-41
2023/12/17 11:39:23;;;;;;;5.20;3.40;;;;;;;;;;81980;282;3028809;-43
2023/12/17 11:42:00;;;;;;;5.40;3.70;;;;;;;;;;81943;285;3027569;-42
2023/12/17 11:44:37;;;;;;;5.50;3.60;;;;;;;;;;81982;282;3030763;-41
2023/12/17 11:47:14;;;;;;;5.80;4.10;;;;;;;;;;81958;282;3032034;-42
2023/12/17 11:49:59;;;;;;;5.80;3.70;;;;;;;;;;81991;282;3028798;-42
2023/12/17 11:52:37;;;;;;;5.30;3.50;;;;;;;;;;81941;285;3029991;-41
2023/12/17 11:55:16;;;;;;;6.40;4.00;;;;;;;;;;81965;285;3031050;-41
2023/12/17 11:58:04;;;;;;;5.40;3.50;;;;;;;;;;81971;285;3031108;-42
2023/12/17 12:00:43;;;;;;;5.60;4.00;;;;;;;;;;82015;282;3028610;-41
2023/12/17 12:03:23;;;;;;;5.40;3.70;;;;;;;;;;81912;282;3027846;-43
2023/12/17 12:06:06;;;;;;;5.80;3.80;;;;;;;;;;81982;283;3031249;-42
2023/12/17 12:08:48;;;;;;;5.40;3.80;;;;;;;;;;81945;282;3031491;-42
2023/12/17 12:11:34;;;;;;;5.70;3.80;;;;;;;;;;81951;282;3028013;-42
2023/12/17 12:14:16;;;;;;;6.00;4.00;;;;;;;;;;81929;285;3027648;-41
2023/12/17 12:16:55;;;;;;;6.30;3.80;;;;;;;;;;81939;285;3030535;-42
2023/12/17 12:19:34;;;;;;;6.10;4.00;;;;;;;;;;81938;282;3032849;-41
2023/12/17 12:22:19;;;;;;;5.40;3.60;;;;;;;;;;81911;282;3028298;-43
2023/12/17 12:24:59;;;;;;;5.70;3.80;;;;;;;;;;81937;282;3034968;-42
2023/12/17 12:27:41;;;;;;;5.90;4.00;;;;;;;;;;81985;282;3031728;-41
2023/12/17 12:30:30;;;;;;;5.50;3.80;;;;;;;;;;81970;285;3032003;-41
2023/12/17 12:33:17;;;;;;;6.20;4.20;;;;;;;;;;81901;282;3028441;-42
2023/12/17 12:36:11;;;;;;;6.10;4.00;;;;;;;;;;81900;282;3027157;-42
2023/12/17 12:38:50;;;;;;;6.00;4.00;;;;;;;;;;81944;285;3031532;-41
2023/12/17 12:41:28;;;;;;;5.60;3.70;;;;;;;;;;81980;285;3031793;-41
2023/12/17 12:44:06;;;;;;;5.80;3.80;;;;;;;;;;81937;285;3028756;-41
2023/12/17 12:46:44;;;;;;;5.50;3.90;;;;;;;;;;81863;285;3027645;-42
2023/12/17 12:49:20;;;;;;;5.70;3.90;;;;;;;;;;81957;285;3032174;-42
2023/12/17 12:52:01;;;;;;;5.30;3.70;;;;;;;;;;81940;282;3031736;-41
2023/12/17 12:54:43;;;;;;;6.10;4.20;;;;;;;;;;81914;282;3028051;-42
2023/12/17 12:57:20;;;;;;;5.90;4.10;;;;;;;;;;82000;286;3027229;-41
2023/12/17 13:00:01;;;;;;;5.60;3.90;;;;;;;;;;81927;282;3031202;-42
2023/12/17 13:02:41;;;;;;;5.90;4.20;;;;;;;;;;81954;282;3032874;-41
2023/12/17 13:05:22;;;;;;;5.60;3.90;;;;;;;;;;81890;286;3029079;-41
2023/12/17 13:08:03;;;;;;;5.90;4.00;;;;;;;;;;81988;283;3027423;-41
2023/12/17 13:10:40;;;;;;;5.80;4.10;;;;;;;;;;81947;282;3030594;-40
2023/12/17 13:13:19;;;;;;;6.40;4.00;;;;;;;;;;81928;282;3031581;-42
2023/12/17 13:15:55;;;;;;;6.30;3.90;;;;;;;;;;82023;282;3033822;-42
2023/12/17 13:18:34;;;;;;;5.50;3.80;;;;;;;;;;81944;282;3026992;-42
2023/12/17 13:21:14;;;;;;;6.60;4.20;;;;;;;;;;81920;282;3032227;-41
2023/12/17 13:23:51;;;;;;;6.70;3.90;;;;;;;;;;81944;286;3031665;-42
2023/12/17 13:26:27;;;;;;;6.00;3.80;;;;;;;;;;81925;282;3034663;-42
2023/12/17 13:29:05;;;;;;;6.00;3.90;;;;;;;;;;81930;282;3027921;-41
2023/12/17 13:31:44;;;;;;;6.50;4.00;;;;;;;;;;81884;284;3030723;-41
2023/12/17 13:34:22;;;;;;;6.30;4.20;;;;;;;;;;81924;282;3031243;-41
2023/12/17 13:37:00;;;;;;;5.60;3.90;;;;;;;;;;81930;282;3028405;-43
2023/12/17 13:39:37;;;;;;;6.40;4.20;;;;;;;;;;81946;282;3027567;-42
2023/12/17 13:42:17;;;;;;;6.70;4.20;;;;;;;;;;81915;282;3031176;-42
2023/12/17 13:44:55;;;;;;;6.00;3.90;;;;;;;;;;81891;282;3032576;-42
2023/12/17 13:47:32;;;;;;;6.90;3.90;;;;;;;;;;81935;282;3028660;-41
2023/12/17 13:50:10;;;;;;;7.50;4.30;;;;;;;;;;81945;282;3027398;-41
2023/12/17 13:52:47;;;;;;;7.60;4.10;;;;;;;;;;81949;282;3030625;-41
2023/12/17 13:55:30;;;;;;;7.70;4.00;;;;;;;;;;81878;286;3031836;-41
2023/12/17 13:58:06;;;;;;;8.20;4.10;;;;;;;;;;81941;278;3028264;-42
2023/12/17 14:00:45;;;;;;;8.50;4.70;;;;;;;;;;81954;282;3027754;-41
2023/12/17 14:03:26;;;;;;;8.20;4.50;;;;;;;;;;81924;285;3030229;-42
2023/12/17 14:06:03;;;;;;;7.90;4.70;;;;;;;;;;81943;282;3032195;-43
2023/12/17 14:08:39;;;;;;;8.20;4.50;;;;;;;;;;81951;282;3028288;-42
2023/12/17 14:11:20;;;;;;;7.00;4.30;;;;;;;;;;81958;282;3027514;-42
2023/12/17 14:14:09;;;;;;;7.50;4.20;;;;;;;;;;81940;282;3031052;-41
2023/12/17 14:16:46;;;;;;;8.80;4.20;;;;;;;;;;81905;282;3031962;-41
2023/12/17 14:19:23;;;;;;;8.00;4.50;;;;;;;;;;81932;282;3027801;-42
2023/12/17 14:22:00;;;;;;;7.10;4.60;;;;;;;;;;81951;278;3027552;-41
2023/12/17 14:24:41;;;;;;;7.30;4.70;;;;;;;;;;81947;282;3031300;-41
2023/12/17 14:27:18;;;;;;;7.10;4.20;;;;;;;;;;81914;282;3031247;-40
2023/12/17 14:29:59;;;;;;;7.60;4.40;;;;;;;;;;81940;285;3028229;-42
2023/12/17 14:32:35;;;;;;;8.20;4.80;;;;;;;;;;81955;286;3027687;-42
2023/12/17 14:35:13;;;;;;;7.70;4.80;;;;;;;;;;81906;282;3031288;-42
2023/12/17 14:37:49;;;;;;;6.90;4.70;;;;;;;;;;82037;282;3037173;-42
2023/12/17 14:40:26;;;;;;;6.90;4.50;;;;;;;;;;81931;282;3028695;-40
2023/12/17 14:43:05;;;;;;;7.90;5.00;;;;;;;;;;81897;288;3027852;-40
2023/12/17 14:45:43;;;;;;;6.60;4.30;;;;;;;;;;81916;285;3031038;-41
2023/12/17 14:48:22;;;;;;;7.40;4.60;;;;;;;;;;81927;278;3037789;-41
2023/12/17 14:50:59;;;;;;;6.70;4.40;;;;;;;;;;81902;282;3028330;-40
2023/12/17 14:53:36;;;;;;;7.50;4.50;;;;;;;;;;81927;285;3027847;-41
2023/12/17 14:56:21;;;;;;;7.20;4.20;;;;;;;;;;81905;285;3030783;-41
2023/12/17 14:58:59;;;;;;;6.50;4.30;;;;;;;;;;81941;282;3031444;-43
2023/12/17 15:01:39;;;;;;;8.20;4.80;;;;;;;;;;81949;282;3027777;-41
2023/12/17 15:04:16;;;;;;;7.20;4.70;;;;;;;;;;81967;278;3027276;-42
2023/12/17 15:06:53;;;;;;;6.60;4.50;;;;;;;;;;81931;285;3031231;-41
2023/12/17 15:09:31;;;;;;;7.20;4.60;;;;;;;;;;81942;285;3032234;-42
2023/12/17 15:12:10;;;;;;;7.40;4.80;;;;;;;;;;81959;282;3028784;-42
2023/12/17 15:14:46;;;;;;;6.50;4.20;;;;;;;;;;81974;285;3028184;-42
2023/12/17 15:17:24;;;;;;;7.30;5.30;;;;;;;;;;81965;282;3031043;-42
2023/12/17 15:20:00;;;;;;;7.80;5.40;;;;;;;;;;81956;282;3032195;-42
2023/12/17 15:22:40;;;;;;;7.40;6.10;;;;;;;;;;81962;282;3028845;-44
2023/12/17 15:25:18;;;;;;;9.00;6.30;;;;;;;;;;81983;285;3027394;-44
2023/12/17 15:27:54;;;;;;;7.50;6.00;;;;;;;;;;81946;282;3032421;-42
2023/12/17 15:30:31;;;;;;;8.50;6.00;;;;;;;;;;81971;282;3031440;-43
2023/12/17 15:33:08;;;;;;;7.20;6.00;;;;;;;;;;81965;285;3028683;-43
2023/12/17 15:35:45;;;;;;;7.60;6.20;;;;;;;;;;81969;285;3027921;-43
2023/12/17 15:38:23;;;;;;;8.20;6.00;;;;;;;;;;81923;281;3031314;-44